Time;durP1;ratioP1;P1;durP2;ratioP2;P2;SDS_P1;SDS_P2;PMS_P1;PMS_P2;Temp;Humidity;BMP_temperature;BMP_pressure;BME280_temperature;BME280_humidity;BME280_pressure;Samples;Min_cycle;Max_cycle;Signal;HPM_P1;HPM_P2
2021/05/05 00:01:52;;;;;;;2.10;1.43;;;9.30;99.90;;;;;;6073322;23;20420;-66
2021/05/05 00:04:19;;;;;;;2.63;1.63;;;9.30;99.90;;;;;;6073358;23;20420;-67
2021/05/05 00:06:45;;;;;;;2.53;1.60;;;9.40;99.90;;;;;;6073523;23;20424;-66
2021/05/05 00:09:12;;;;;;;2.20;1.53;;;9.40;99.90;;;;;;6073313;23;20424;-65
2021/05/05 00:11:40;;;;;;;1.50;1.10;;;9.40;99.90;;;;;;6073369;23;20425;-66
2021/05/05 00:14:08;;;;;;;3.43;1.60;;;9.40;99.90;;;;;;6072847;23;20943;-66
2021/05/05 00:16:34;;;;;;;3.57;1.70;;;9.40;99.90;;;;;;6072494;23;20421;-66
2021/05/05 00:19:00;;;;;;;2.03;1.30;;;9.40;99.90;;;;;;6073756;23;20432;-66
2021/05/05 00:21:30;;;;;;;1.50;1.40;;;9.40;99.90;;;;;;6073611;23;20428;-66
2021/05/05 00:23:56;;;;;;;4.13;1.50;;;9.40;99.90;;;;;;6072786;23;20445;-66
2021/05/05 00:26:22;;;;;;;2.83;1.63;;;9.30;99.90;;;;;;6072917;23;20759;-66
2021/05/05 00:28:48;;;;;;;3.83;1.40;;;9.30;99.90;;;;;;6072681;23;20459;-66
2021/05/05 00:31:17;;;;;;;14.13;1.70;;;9.30;99.90;;;;;;6072804;23;20452;-66
2021/05/05 00:33:43;;;;;;;2.00;1.30;;;9.20;99.90;;;;;;6072304;23;20444;-66
2021/05/05 00:36:09;;;;;;;2.27;1.40;;;9.20;99.90;;;;;;6071460;23;20420;-66
2021/05/05 00:38:36;;;;;;;3.10;1.40;;;9.10;99.90;;;;;;6071666;23;20421;-65
2021/05/05 00:41:06;;;;;;;2.50;1.30;;;9.10;99.90;;;;;;6071847;23;20443;-66
2021/05/05 00:43:33;;;;;;;1.70;1.40;;;9.10;99.90;;;;;;6071655;23;20503;-66
2021/05/05 00:46:00;;;;;;;2.73;1.63;;;9.10;99.90;;;;;;6071583;23;20723;-67
2021/05/05 00:48:28;;;;;;;3.00;2.17;;;9.10;99.90;;;;;;6071709;23;20507;-66
2021/05/05 00:50:55;;;;;;;2.40;1.50;;;9.00;99.90;;;;;;6071665;23;20420;-66
2021/05/05 00:53:21;;;;;;;1.73;1.50;;;9.00;99.90;;;;;;6071735;23;20435;-66
2021/05/05 00:55:48;;;;;;;5.90;1.80;;;9.00;99.90;;;;;;6071508;23;20898;-66
2021/05/05 00:58:14;;;;;;;10.10;1.67;;;9.00;99.90;;;;;;6072095;23;20724;-67
2021/05/05 01:00:41;;;;;;;1.80;1.50;;;9.00;99.90;;;;;;6071456;23;20883;-67
2021/05/05 01:03:07;;;;;;;2.10;1.37;;;9.00;99.90;;;;;;6071525;23;20420;-66
2021/05/05 01:05:34;;;;;;;6.93;1.70;;;8.90;99.90;;;;;;6071649;23;20487;-67
2021/05/05 01:08:00;;;;;;;4.27;1.60;;;9.00;99.90;;;;;;6071917;23;20425;-66
2021/05/05 01:10:27;;;;;;;3.73;1.93;;;9.00;99.90;;;;;;6071826;23;20428;-67
2021/05/05 01:12:54;;;;;;;2.03;1.43;;;9.00;99.90;;;;;;6072082;23;20424;-66
2021/05/05 01:15:21;;;;;;;5.67;1.87;;;9.00;99.90;;;;;;6071657;23;20444;-66
2021/05/05 01:17:47;;;;;;;3.10;1.70;;;9.00;99.90;;;;;;6071844;23;20428;-66
2021/05/05 01:20:14;;;;;;;2.27;1.40;;;9.00;99.90;;;;;;6072353;23;20483;-67
2021/05/05 01:22:42;;;;;;;4.10;1.53;;;9.00;99.90;;;;;;6072162;23;20479;-66
2021/05/05 01:25:11;;;;;;;6.40;1.30;;;9.00;99.90;;;;;;6071599;23;20444;-67
2021/05/05 01:27:37;;;;;;;3.87;1.60;;;9.00;99.90;;;;;;6072478;23;20420;-67
2021/05/05 01:30:05;;;;;;;3.27;1.70;;;9.00;99.90;;;;;;6072150;23;20428;-67
2021/05/05 01:32:32;;;;;;;3.23;1.47;;;9.00;99.90;;;;;;6072358;23;20442;-66
2021/05/05 01:34:58;;;;;;;2.13;1.67;;;8.90;99.90;;;;;;6071989;23;20527;-66
2021/05/05 01:37:24;;;;;;;2.43;1.70;;;8.90;99.90;;;;;;6072297;23;20420;-66
2021/05/05 01:39:51;;;;;;;1.70;1.50;;;8.90;99.90;;;;;;6072610;23;20428;-66
2021/05/05 01:42:17;;;;;;;5.83;1.53;;;8.90;99.90;;;;;;6071926;23;20463;-66
2021/05/05 01:44:44;;;;;;;10.57;1.57;;;8.90;99.90;;;;;;6072117;23;20427;-66
2021/05/05 01:47:12;;;;;;;5.30;1.70;;;8.90;99.90;;;;;;6072358;23;20420;-67
2021/05/05 01:49:42;;;;;;;2.70;1.63;;;8.80;99.90;;;;;;6072029;23;20424;-67
2021/05/05 01:52:09;;;;;;;3.27;1.57;;;8.80;99.90;;;;;;6072959;23;20405;-68
2021/05/05 01:54:37;;;;;;;2.33;1.57;;;8.70;99.90;;;;;;6072200;23;20459;-67
2021/05/05 01:57:25;;;;;;;2.23;1.67;;;8.70;99.90;;;;;;6072484;23;20456;-68
2021/05/05 01:59:52;;;;;;;2.90;1.40;;;8.70;99.90;;;;;;6072504;23;20875;-68
2021/05/05 02:02:18;;;;;;;2.30;1.33;;;8.70;99.90;;;;;;6072282;23;20731;-67
2021/05/05 02:04:44;;;;;;;3.57;1.53;;;8.70;99.90;;;;;;6078863;23;20483;-66
2021/05/05 02:07:12;;;;;;;2.83;1.70;;;8.70;99.90;;;;;;6079142;23;20447;-67
2021/05/05 02:09:38;;;;;;;5.30;1.80;;;8.70;99.90;;;;;;6079940;23;20416;-69
2021/05/05 02:12:06;;;;;;;3.23;1.67;;;8.70;99.90;;;;;;6092957;23;20400;-69
2021/05/05 02:14:33;;;;;;;7.03;1.80;;;8.80;99.90;;;;;;6101461;23;20432;-69
2021/05/05 02:17:01;;;;;;;4.30;2.10;;;8.80;99.90;;;;;;6101639;23;20440;-67
2021/05/05 02:19:27;;;;;;;3.27;1.83;;;8.80;99.90;;;;;;6093689;23;20484;-68
2021/05/05 02:21:54;;;;;;;2.43;1.47;;;8.90;99.90;;;;;;6103065;23;20421;-68
2021/05/05 02:24:20;;;;;;;4.30;2.13;;;8.90;99.90;;;;;;6102549;23;20463;-69
2021/05/05 02:26:47;;;;;;;3.00;1.40;;;8.90;99.90;;;;;;6092467;23;20416;-68
2021/05/05 02:29:13;;;;;;;5.33;1.60;;;8.90;99.90;;;;;;6102266;23;20428;-67
2021/05/05 02:31:40;;;;;;;3.67;1.60;;;8.90;99.90;;;;;;6093159;23;20456;-67
2021/05/05 02:34:07;;;;;;;5.03;2.23;;;9.00;99.90;;;;;;6102789;23;20471;-68
2021/05/05 02:36:34;;;;;;;2.53;1.30;;;8.90;99.90;;;;;;6092242;23;20471;-68
2021/05/05 02:39:03;;;;;;;3.40;1.47;;;8.90;99.90;;;;;;6101606;23;20408;-68
2021/05/05 02:41:30;;;;;;;2.30;2.10;;;8.90;99.90;;;;;;6092575;23;20455;-68
2021/05/05 02:43:59;;;;;;;2.27;1.87;;;8.80;99.90;;;;;;6093562;23;20424;-69
2021/05/05 02:46:25;;;;;;;4.03;1.47;;;8.80;99.90;;;;;;6102904;23;20399;-69
2021/05/05 02:48:52;;;;;;;3.67;1.70;;;8.80;99.90;;;;;;6093340;23;20423;-68
2021/05/05 02:51:19;;;;;;;5.23;1.67;;;8.80;99.90;;;;;;6092763;23;20420;-67
2021/05/05 02:53:45;;;;;;;3.57;1.90;;;8.70;99.90;;;;;;6102185;23;20423;-67
2021/05/05 02:56:11;;;;;;;3.03;1.57;;;8.70;99.90;;;;;;6091322;23;20416;-70
2021/05/05 02:58:37;;;;;;;3.30;1.60;;;8.70;99.90;;;;;;6092938;23;20431;-68
2021/05/05 03:01:04;;;;;;;5.70;1.87;;;8.60;99.90;;;;;;6091661;23;20450;-68
2021/05/05 03:03:30;;;;;;;4.50;1.57;;;8.60;99.90;;;;;;6102652;23;20409;-68
2021/05/05 03:05:57;;;;;;;3.30;1.90;;;8.50;99.90;;;;;;6093695;23;20499;-68
2021/05/05 03:08:24;;;;;;;5.93;2.00;;;8.50;99.90;;;;;;6094665;23;20570;-68
2021/05/05 03:10:50;;;;;;;2.37;1.77;;;8.50;99.90;;;;;;6103161;23;20408;-68
2021/05/05 03:13:17;;;;;;;6.43;2.40;;;8.50;99.90;;;;;;6092924;23;20455;-67
2021/05/05 03:15:43;;;;;;;2.83;1.70;;;8.50;99.90;;;;;;6101147;23;20448;-68
2021/05/05 03:18:09;;;;;;;2.00;1.57;;;8.50;99.90;;;;;;6091016;23;20439;-68
2021/05/05 03:20:36;;;;;;;2.60;1.70;;;8.50;99.90;;;;;;6089303;23;20492;-68
2021/05/05 03:23:03;;;;;;;3.90;2.23;;;8.40;99.90;;;;;;6089420;23;20417;-67
2021/05/05 03:25:29;;;;;;;4.03;1.87;;;8.40;99.90;;;;;;6092643;23;20483;-68
2021/05/05 03:27:59;;;;;;;2.03;1.70;;;8.40;99.90;;;;;;6102380;23;20491;-68
2021/05/05 03:30:25;;;;;;;2.13;1.80;;;8.40;99.90;;;;;;6103270;23;20443;-68
2021/05/05 03:32:51;;;;;;;2.90;2.17;;;8.30;99.90;;;;;;6093368;23;20404;-69
2021/05/05 03:35:18;;;;;;;2.93;1.83;;;8.40;99.90;;;;;;6094507;23;20448;-68
2021/05/05 03:37:44;;;;;;;3.90;1.77;;;8.40;99.90;;;;;;6095364;23;20447;-69
2021/05/05 03:40:13;;;;;;;4.17;2.10;;;8.40;99.90;;;;;;6104477;23;20460;-69
2021/05/05 03:42:39;;;;;;;4.03;2.10;;;8.30;99.90;;;;;;6100038;23;20419;-69
2021/05/05 03:45:07;;;;;;;3.70;1.97;;;8.40;99.90;;;;;;6093306;23;20421;-68
2021/05/05 03:47:34;;;;;;;3.70;1.80;;;8.40;99.90;;;;;;6102335;23;20435;-69
2021/05/05 03:50:01;;;;;;;2.80;1.80;;;8.40;99.90;;;;;;6103422;23;20427;-68
2021/05/05 03:52:27;;;;;;;3.00;1.80;;;8.40;99.90;;;;;;6094068;23;20436;-68
2021/05/05 03:54:54;;;;;;;2.07;1.83;;;8.40;99.90;;;;;;6091780;23;20448;-68
2021/05/05 03:57:21;;;;;;;5.93;2.60;;;8.40;99.90;;;;;;6091728;23;20425;-68
2021/05/05 03:59:47;;;;;;;2.90;2.00;;;8.40;99.90;;;;;;6092505;23;20463;-68
2021/05/05 04:02:13;;;;;;;2.70;2.23;;;8.50;99.90;;;;;;6102256;23;20432;-68
2021/05/05 04:04:40;;;;;;;3.33;1.93;;;8.50;99.90;;;;;;6091705;23;20451;-68
2021/05/05 04:07:06;;;;;;;5.17;2.13;;;8.50;99.90;;;;;;6091529;23;20424;-68
2021/05/05 04:09:32;;;;;;;1.93;1.80;;;8.50;99.90;;;;;;6099948;23;20389;-68
2021/05/05 04:11:59;;;;;;;4.73;2.00;;;8.50;99.90;;;;;;6090049;23;20416;-68
2021/05/05 04:14:26;;;;;;;3.03;1.63;;;8.60;99.90;;;;;;6092973;23;20444;-68
2021/05/05 04:16:52;;;;;;;3.60;1.80;;;8.60;99.90;;;;;;6104552;23;20499;-68
2021/05/05 04:19:18;;;;;;;3.63;1.70;;;8.70;99.90;;;;;;6100390;23;20433;-68
2021/05/05 04:21:45;;;;;;;2.77;1.57;;;8.60;99.90;;;;;;6099476;23;20405;-68
2021/05/05 04:24:13;;;;;;;2.63;1.87;;;8.70;99.90;;;;;;6101374;23;20452;-68
2021/05/05 04:26:39;;;;;;;2.70;1.63;;;8.70;99.90;;;;;;6089676;23;20435;-67
2021/05/05 04:29:05;;;;;;;3.03;2.20;;;8.70;99.90;;;;;;6091971;23;20863;-68
2021/05/05 04:31:33;;;;;;;4.93;2.13;;;8.70;99.90;;;;;;6101642;23;20444;-68
2021/05/05 04:34:00;;;;;;;3.83;1.80;;;8.70;99.90;;;;;;6102639;23;20452;-67
2021/05/05 04:36:26;;;;;;;5.10;2.10;;;8.80;99.90;;;;;;6091562;23;20421;-68
2021/05/05 04:38:55;;;;;;;4.13;2.10;;;8.80;99.90;;;;;;6090556;23;20761;-67
2021/05/05 04:41:21;;;;;;;4.20;1.70;;;8.80;99.90;;;;;;6099335;23;20420;-68
2021/05/05 04:43:47;;;;;;;6.07;1.60;;;8.70;99.90;;;;;;6089091;23;20524;-67
2021/05/05 04:46:14;;;;;;;3.63;1.90;;;8.70;99.90;;;;;;6087302;23;20417;-68
2021/05/05 04:48:41;;;;;;;4.10;2.10;;;8.80;99.90;;;;;;6087269;23;20420;-67
2021/05/05 04:51:08;;;;;;;2.93;1.90;;;8.80;99.90;;;;;;6097808;23;21010;-67
2021/05/05 04:53:34;;;;;;;3.13;1.70;;;8.90;99.90;;;;;;6089432;23;20491;-67
2021/05/05 04:56:00;;;;;;;2.47;1.50;;;8.90;99.90;;;;;;6089305;23;20444;-68
2021/05/05 04:58:27;;;;;;;3.83;1.90;;;8.90;99.90;;;;;;6089629;23;20475;-67
2021/05/05 05:00:53;;;;;;;4.20;1.80;;;8.90;99.90;;;;;;6088562;23;20483;-67
2021/05/05 05:03:19;;;;;;;3.70;2.57;;;9.00;99.90;;;;;;6090348;23;20412;-67
2021/05/05 05:05:46;;;;;;;4.00;1.93;;;9.00;99.90;;;;;;6090278;23;20416;-67
2021/05/05 05:08:13;;;;;;;2.40;1.93;;;9.00;99.90;;;;;;6099088;23;20414;-66
2021/05/05 05:10:39;;;;;;;2.63;1.80;;;9.10;99.90;;;;;;6099116;23;20420;-68
2021/05/05 05:13:06;;;;;;;4.33;1.73;;;9.10;99.90;;;;;;6099996;23;20408;-67
2021/05/05 05:15:33;;;;;;;3.20;1.67;;;9.20;99.90;;;;;;6089903;23;20456;-68
2021/05/05 05:17:59;;;;;;;3.17;1.60;;;9.20;99.90;;;;;;6089367;23;20428;-67
2021/05/05 05:20:26;;;;;;;3.23;1.77;;;9.20;99.90;;;;;;6089839;23;20427;-68
2021/05/05 05:22:55;;;;;;;6.20;1.50;;;9.20;99.90;;;;;;6091138;23;20452;-67
2021/05/05 05:25:26;;;;;;;3.40;1.60;;;9.30;99.90;;;;;;6091429;23;20460;-67
2021/05/05 05:27:52;;;;;;;3.03;1.90;;;9.40;99.90;;;;;;6089298;23;20405;-68
2021/05/05 05:30:20;;;;;;;1.70;1.57;;;9.40;99.90;;;;;;6089058;23;20497;-68
2021/05/05 05:32:49;;;;;;;2.23;1.47;;;9.40;99.90;;;;;;6090633;23;20434;-68
2021/05/05 05:35:16;;;;;;;1.80;1.37;;;9.40;99.90;;;;;;6100698;23;20436;-69
2021/05/05 05:37:43;;;;;;;4.13;1.57;;;9.50;99.90;;;;;;6099118;23;20400;-68
2021/05/05 05:40:11;;;;;;;2.63;1.60;;;9.50;99.90;;;;;;6087194;23;20567;-68
2021/05/05 05:42:37;;;;;;;1.70;1.40;;;9.50;99.90;;;;;;6086905;23;20420;-67
2021/05/05 05:45:05;;;;;;;3.27;1.70;;;9.50;99.90;;;;;;6086707;23;20416;-68
2021/05/05 05:47:31;;;;;;;2.67;1.60;;;9.50;99.90;;;;;;6087632;23;20416;-68
2021/05/05 05:49:58;;;;;;;2.63;1.47;;;9.60;99.90;;;;;;6097183;23;20471;-68
2021/05/05 05:52:24;;;;;;;3.20;1.60;;;9.50;99.90;;;;;;6096480;23;20481;-68
2021/05/05 05:54:50;;;;;;;2.90;1.77;;;9.50;99.90;;;;;;6096682;23;20512;-68
2021/05/05 05:57:17;;;;;;;2.63;1.90;;;9.50;99.90;;;;;;6095506;23;20423;-68
2021/05/05 05:59:44;;;;;;;3.03;1.87;;;9.50;99.90;;;;;;6086325;23;20952;-68
2021/05/05 06:02:11;;;;;;;2.80;1.90;;;9.40;99.90;;;;;;6087489;23;20420;-67
2021/05/05 06:04:37;;;;;;;4.83;1.70;;;9.30;99.90;;;;;;6097479;23;20413;-67
2021/05/05 06:07:09;;;;;;;5.30;2.03;;;9.30;99.90;;;;;;6100189;23;20519;-68
2021/05/05 06:09:36;;;;;;;3.37;1.60;;;9.30;99.90;;;;;;6098703;23;20392;-68
2021/05/05 06:12:02;;;;;;;9.43;2.13;;;9.30;99.90;;;;;;6098092;23;20726;-68
2021/05/05 06:14:30;;;;;;;3.20;1.83;;;9.40;99.90;;;;;;6086329;23;20519;-68
2021/05/05 06:16:56;;;;;;;4.60;2.03;;;9.40;99.90;;;;;;6085745;23;20416;-68
2021/05/05 06:19:22;;;;;;;1.90;1.80;;;9.50;99.90;;;;;;6097744;23;20443;-68
2021/05/05 06:21:48;;;;;;;2.27;1.70;;;9.60;99.90;;;;;;6087118;23;20883;-68
2021/05/05 06:24:15;;;;;;;3.50;2.30;;;9.70;99.90;;;;;;6086844;23;20463;-68
2021/05/05 06:26:41;;;;;;;4.10;2.07;;;9.70;99.90;;;;;;6087244;23;20484;-68
2021/05/05 06:29:07;;;;;;;4.03;1.60;;;9.60;99.90;;;;;;6096837;23;20424;-68
2021/05/05 06:31:37;;;;;;;2.13;1.60;;;9.70;99.90;;;;;;6086298;23;20487;-67
2021/05/05 06:34:03;;;;;;;4.23;2.43;;;9.70;99.90;;;;;;6086365;23;20431;-68
2021/05/05 06:36:30;;;;;;;4.60;1.80;;;9.80;99.90;;;;;;6084726;23;20420;-68
2021/05/05 06:38:56;;;;;;;5.37;2.33;;;9.80;99.90;;;;;;6086348;23;20506;-69
2021/05/05 06:41:22;;;;;;;4.70;1.80;;;9.90;99.90;;;;;;6087303;23;20784;-68
2021/05/05 06:43:49;;;;;;;3.10;1.93;;;10.00;99.90;;;;;;6087592;23;20653;-68
2021/05/05 06:46:15;;;;;;;5.90;2.40;;;10.00;99.90;;;;;;6087799;23;20860;-68
2021/05/05 06:48:42;;;;;;;3.57;2.43;;;10.00;99.90;;;;;;6081511;23;20502;-67
2021/05/05 06:51:09;;;;;;;2.37;1.97;;;10.00;99.90;;;;;;6073451;23;20427;-66
2021/05/05 06:53:35;;;;;;;4.27;2.20;;;10.00;99.90;;;;;;6073985;23;20416;-66
2021/05/05 06:56:01;;;;;;;4.17;1.90;;;10.00;99.90;;;;;;6073213;23;20720;-67
2021/05/05 06:58:27;;;;;;;2.17;1.97;;;10.20;99.90;;;;;;6073763;23;20501;-66
2021/05/05 07:00:53;;;;;;;1.93;1.70;;;10.30;99.90;;;;;;6073589;23;20420;-66
2021/05/05 07:03:21;;;;;;;2.90;2.20;;;10.40;99.90;;;;;;6073412;23;20420;-67
2021/05/05 07:05:49;;;;;;;2.63;2.40;;;10.30;99.90;;;;;;6073631;23;20715;-66
2021/05/05 07:08:15;;;;;;;2.47;1.93;;;10.30;99.90;;;;;;6073918;23;20420;-66
2021/05/05 07:10:41;;;;;;;2.07;1.93;;;10.20;99.90;;;;;;6073353;23;20775;-65
2021/05/05 07:13:07;;;;;;;2.50;2.30;;;10.10;99.90;;;;;;6073527;23;20701;-67
2021/05/05 07:15:33;;;;;;;3.13;2.30;;;10.10;99.90;;;;;;6073276;23;20450;-66
2021/05/05 07:18:00;;;;;;;2.73;2.40;;;9.90;99.90;;;;;;6073361;23;20431;-66
2021/05/05 07:20:26;;;;;;;5.17;2.47;;;9.90;99.90;;;;;;6073363;23;20434;-65
2021/05/05 07:22:53;;;;;;;3.40;2.20;;;9.90;99.90;;;;;;6073407;23;20420;-67
2021/05/05 07:25:19;;;;;;;15.63;2.57;;;10.00;99.90;;;;;;6072426;23;20444;-66
2021/05/05 07:27:45;;;;;;;3.57;2.50;;;10.00;99.90;;;;;;6073182;23;20668;-66
2021/05/05 07:30:13;;;;;;;3.37;2.30;;;10.00;99.90;;;;;;6083526;23;20432;-67
2021/05/05 07:32:41;;;;;;;2.53;2.07;;;10.20;99.90;;;;;;6073958;23;20710;-66
2021/05/05 07:35:09;;;;;;;2.63;2.43;;;10.20;99.90;;;;;;6073673;23;20451;-66
2021/05/05 07:38:01;;;;;;;5.17;2.57;;;10.20;99.90;;;;;;6072958;23;20436;-66
2021/05/05 07:46:09;;;;;;;2.87;2.20;;;10.30;99.90;;;;;;6025635;23;20448;-65
2021/05/05 07:48:40;;;;;;;3.70;2.40;;;10.50;99.90;;;;;;6074170;23;20776;-66
2021/05/05 07:51:07;;;;;;;2.90;2.60;;;10.60;99.90;;;;;;6075347;23;20409;-66
2021/05/05 07:53:33;;;;;;;2.37;2.27;;;10.60;99.90;;;;;;6074991;23;20424;-66
2021/05/05 07:56:00;;;;;;;3.27;2.13;;;10.60;99.90;;;;;;6074330;23;20444;-66
2021/05/05 07:58:27;;;;;;;2.10;2.00;;;10.50;99.90;;;;;;6084752;23;20423;-66
2021/05/05 08:00:53;;;;;;;2.67;2.43;;;10.50;99.90;;;;;;6075633;23;20496;-65
2021/05/05 08:03:20;;;;;;;2.70;2.10;;;10.50;99.90;;;;;;6073395;23;20471;-65
2021/05/05 08:05:46;;;;;;;3.03;2.03;;;10.60;99.90;;;;;;6073120;23;20416;-66
2021/05/05 08:08:12;;;;;;;4.17;2.30;;;10.70;99.90;;;;;;6072823;23;20421;-65
2021/05/05 08:10:39;;;;;;;2.90;2.20;;;10.70;99.90;;;;;;6073644;23;20479;-65
2021/05/05 08:13:06;;;;;;;3.30;2.00;;;10.70;99.90;;;;;;6081754;23;20424;-66
2021/05/05 08:15:34;;;;;;;5.40;2.20;;;10.80;99.90;;;;;;6072565;23;20539;-66
2021/05/05 08:18:01;;;;;;;4.57;2.73;;;10.70;99.90;;;;;;6072636;23;20443;-65
2021/05/05 08:20:29;;;;;;;2.33;2.07;;;10.70;99.90;;;;;;6072380;23;20483;-65
2021/05/05 08:22:55;;;;;;;2.43;2.10;;;10.60;99.90;;;;;;6072908;23;20716;-66
2021/05/05 08:25:23;;;;;;;1.90;1.80;;;10.60;99.90;;;;;;6044191;23;20487;-66
2021/05/05 08:27:50;;;;;;;3.10;2.00;;;10.60;99.90;;;;;;6043691;23;20883;-64
2021/05/05 08:30:18;;;;;;;2.87;2.40;;;10.70;99.90;;;;;;6044399;23;20417;-66
2021/05/05 08:32:44;;;;;;;2.93;1.83;;;10.90;99.90;;;;;;6044083;23;20876;-66
2021/05/05 08:35:11;;;;;;;3.63;2.70;;;10.90;99.90;;;;;;6044487;23;20460;-66
2021/05/05 08:37:38;;;;;;;5.30;2.03;;;10.90;99.90;;;;;;6044080;23;20904;-65
2021/05/05 08:40:06;;;;;;;2.83;1.83;;;10.90;99.90;;;;;;6043993;23;20485;-65
2021/05/05 08:42:32;;;;;;;1.67;1.57;;;10.90;99.90;;;;;;6044530;23;20425;-65
2021/05/05 08:45:01;;;;;;;4.00;2.03;;;11.00;99.90;;;;;;6044060;23;20449;-65
2021/05/05 08:47:29;;;;;;;5.10;2.00;;;11.00;99.90;;;;;;6043707;23;20425;-66
2021/05/05 08:49:56;;;;;;;2.03;1.63;;;11.00;99.90;;;;;;6043757;23;20430;-66
2021/05/05 08:52:22;;;;;;;2.20;1.70;;;11.00;99.90;;;;;;6043506;23;20929;-65
2021/05/05 08:54:49;;;;;;;2.37;2.17;;;11.10;99.90;;;;;;6043593;23;20441;-65
2021/05/05 08:57:17;;;;;;;2.83;2.10;;;11.30;99.90;;;;;;6043488;23;20433;-65
2021/05/05 08:59:44;;;;;;;3.17;2.00;;;11.50;99.90;;;;;;6043786;23;20449;-66
2021/05/05 09:02:10;;;;;;;2.20;2.00;;;11.50;99.90;;;;;;6048055;23;20773;-66
2021/05/05 09:04:37;;;;;;;2.17;2.00;;;11.40;99.90;;;;;;6044067;23;20508;-67
2021/05/05 09:07:03;;;;;;;2.80;1.90;;;11.40;99.90;;;;;;6053437;23;20875;-66
2021/05/05 09:09:35;;;;;;;1.97;1.67;;;11.40;99.90;;;;;;6043428;23;20421;-66
2021/05/05 09:12:16;;;;;;;2.63;1.63;;;11.40;99.90;;;;;;6045946;23;20497;-66
2021/05/05 09:14:53;;;;;;;1.77;1.40;;;11.50;99.90;;;;;;6043766;23;20904;-65
2021/05/05 09:17:21;;;;;;;5.27;1.33;;;11.40;99.90;;;;;;6044120;23;20420;-66
2021/05/05 09:19:48;;;;;;;1.87;1.40;;;11.20;99.90;;;;;;6043569;23;20956;-65
2021/05/05 09:22:36;;;;;;;1.93;1.40;;;11.10;99.90;;;;;;6043272;23;20421;-66
2021/05/05 09:25:03;;;;;;;1.47;1.37;;;11.10;99.90;;;;;;6078156;23;20910;-66
2021/05/05 09:27:33;;;;;;;1.50;1.40;;;11.20;99.90;;;;;;6072774;23;20427;-66
2021/05/05 09:30:00;;;;;;;2.53;1.67;;;11.20;99.90;;;;;;6072436;23;20435;-67
2021/05/05 09:32:28;;;;;;;1.50;1.40;;;11.30;99.90;;;;;;6072796;23;20408;-66
2021/05/05 09:35:00;;;;;;;4.10;1.60;;;11.40;99.90;;;;;;6072192;23;20503;-66
2021/05/05 09:37:27;;;;;;;1.50;1.20;;;11.50;99.90;;;;;;6072699;23;20446;-66
2021/05/05 09:39:58;;;;;;;2.00;1.23;;;11.60;99.90;;;;;;6071970;23;20421;-66
2021/05/05 09:42:27;;;;;;;2.37;1.27;;;11.70;99.90;;;;;;6072041;23;20688;-66
2021/05/05 09:44:55;;;;;;;5.40;1.90;;;11.80;99.90;;;;;;6071898;23;20503;-66
2021/05/05 09:47:22;;;;;;;3.13;1.60;;;11.90;99.90;;;;;;6071817;23;20420;-66
2021/05/05 09:49:48;;;;;;;1.70;1.50;;;11.90;99.90;;;;;;6072172;23;20435;-66
2021/05/05 09:52:25;;;;;;;1.77;1.40;;;11.80;99.90;;;;;;6071909;23;20425;-66
2021/05/05 09:54:57;;;;;;;1.60;1.33;;;11.90;99.90;;;;;;6071688;23;20763;-66
2021/05/05 09:57:29;;;;;;;1.60;1.50;;;11.80;99.90;;;;;;6071754;23;20423;-66
2021/05/05 10:00:01;;;;;;;1.40;1.30;;;11.80;99.90;;;;;;6072162;23;20467;-66
2021/05/05 10:02:29;;;;;;;3.70;1.57;;;11.80;99.90;;;;;;6072220;23;20405;-65
2021/05/05 10:05:07;;;;;;;6.47;1.57;;;11.60;99.90;;;;;;6072155;23;20427;-66
2021/05/05 10:07:53;;;;;;;2.47;1.50;;;11.40;99.90;;;;;;6072515;23;20411;-66
2021/05/05 10:10:20;;;;;;;1.33;1.20;;;11.20;99.90;;;;;;6073128;23;20459;-66
2021/05/05 10:12:47;;;;;;;1.60;1.30;;;10.90;99.90;;;;;;6073972;23;20412;-65
2021/05/05 10:15:15;;;;;;;3.47;1.10;;;10.70;99.90;;;;;;6073695;23;20445;-65
2021/05/05 10:17:44;;;;;;;1.30;1.10;;;10.60;99.90;;;;;;6072365;23;20420;-65
2021/05/05 10:20:14;;;;;;;6.83;1.60;;;10.50;99.90;;;;;;6072229;23;20420;-66
2021/05/05 10:22:42;;;;;;;2.27;1.70;;;10.50;99.90;;;;;;6072016;23;20420;-66
2021/05/05 10:25:13;;;;;;;3.00;1.77;;;10.50;99.90;;;;;;6071451;23;20444;-66
2021/05/05 10:27:40;;;;;;;3.63;1.83;;;10.70;99.90;;;;;;6071639;23;20404;-66
2021/05/05 10:30:08;;;;;;;1.93;1.73;;;10.90;99.90;;;;;;6071741;23;20420;-66
2021/05/05 10:32:34;;;;;;;2.13;1.93;;;11.30;99.90;;;;;;6071922;23;20491;-66
2021/05/05 10:35:01;;;;;;;2.93;2.10;;;11.60;99.90;;;;;;6071689;23;20444;-66
2021/05/05 10:37:48;;;;;;;2.43;2.07;;;11.80;99.90;;;;;;6071400;23;20431;-66
2021/05/05 10:40:18;;;;;;;2.10;2.00;;;12.00;99.90;;;;;;6071932;23;20950;-65
2021/05/05 10:42:51;;;;;;;1.87;1.77;;;12.20;99.90;;;;;;6072084;23;20416;-66
2021/05/05 10:45:30;;;;;;;2.27;1.93;;;12.00;99.90;;;;;;6071562;23;20503;-66
2021/05/05 10:48:10;;;;;;;2.00;1.57;;;11.70;99.90;;;;;;6071350;23;20455;-65
2021/05/05 10:50:58;;;;;;;2.47;2.27;;;11.50;99.90;;;;;;6071699;23;20424;-65
2021/05/05 10:53:26;;;;;;;2.70;2.03;;;11.50;99.90;;;;;;6071771;23;20416;-65
2021/05/05 10:56:00;;;;;;;2.37;2.17;;;11.60;99.90;;;;;;6071803;23;20472;-66
2021/05/05 10:58:31;;;;;;;2.67;1.17;;;11.80;99.90;;;;;;6072022;23;20404;-64
2021/05/05 11:01:00;;;;;;;1.53;1.43;;;12.00;99.90;;;;;;6071461;23;20446;-71
2021/05/05 11:04:03;;;;;;;2.70;1.20;;;12.20;99.90;;;;;;6071700;23;20728;-64
2021/05/05 11:06:54;;;;;;;2.10;1.60;;;12.30;99.90;;;;;;6071098;23;20420;-68
2021/05/05 11:09:41;;;;;;;1.20;1.10;;;12.30;99.90;;;;;;6071607;23;20405;-67
2021/05/05 11:12:38;;;;;;;1.90;1.20;;;12.40;99.90;;;;;;6080243;23;20491;-67
2021/05/05 11:15:05;;;;;;;1.50;1.40;;;12.40;99.90;;;;;;6070840;23;20436;-67
2021/05/05 11:17:32;;;;;;;2.97;1.50;;;12.30;99.90;;;;;;6070912;23;20722;-68
2021/05/05 11:19:58;;;;;;;2.03;1.83;;;12.20;99.90;;;;;;6070678;23;20432;-67
2021/05/05 11:22:44;;;;;;;2.40;1.73;;;12.10;99.90;;;;;;6070554;23;20420;-67
2021/05/05 11:25:25;;;;;;;1.93;1.20;;;12.30;99.90;;;;;;6071495;23;20444;-67
2021/05/05 11:27:54;;;;;;;2.33;1.27;;;13.00;99.90;;;;;;6072602;23;20416;-67
2021/05/05 11:30:47;;;;;;;2.50;1.00;;;13.80;99.90;;;;;;6072596;23;20430;-68
2021/05/05 11:33:15;;;;;;;1.10;0.83;;;14.50;99.90;;;;;;6073059;23;20467;-66
2021/05/05 11:35:43;;;;;;;1.43;0.90;;;14.80;99.90;;;;;;6073161;23;20444;-67
2021/05/05 11:38:23;;;;;;;7.53;1.00;;;14.80;99.90;;;;;;6072951;23;20424;-67
2021/05/05 11:41:01;;;;;;;3.17;0.87;;;14.90;99.90;;;;;;6073032;23;20404;-67
2021/05/05 11:43:31;;;;;;;2.90;0.73;;;14.90;99.90;;;;;;6073044;23;20404;-67
2021/05/05 11:45:59;;;;;;;1.47;0.90;;;14.90;99.90;;;;;;6073769;23;20432;-68
2021/05/05 11:48:37;;;;;;;2.60;1.00;;;15.00;99.90;;;;;;6073444;23;20885;-67
2021/05/05 11:51:19;;;;;;;1.50;0.77;;;15.10;99.90;;;;;;6072932;23;20855;-68
2021/05/05 11:53:45;;;;;;;4.83;0.80;;;15.20;99.30;;;;;;6072656;23;20409;-67
2021/05/05 11:56:16;;;;;;;2.30;0.80;;;15.10;99.00;;;;;;6072679;23;20452;-66
2021/05/05 11:58:52;;;;;;;1.60;0.80;;;15.00;98.90;;;;;;6072481;23;20428;-68
2021/05/05 12:01:31;;;;;;;1.30;0.70;;;14.60;99.40;;;;;;6072677;23;20412;-67
2021/05/05 12:04:17;;;;;;;1.43;0.90;;;14.40;99.90;;;;;;6072934;23;20405;-66
2021/05/05 12:06:53;;;;;;;1.80;1.00;;;14.00;99.90;;;;;;6072149;23;20405;-68
2021/05/05 12:09:32;;;;;;;3.20;1.20;;;13.80;99.90;;;;;;6072330;23;20404;-67
2021/05/05 12:12:23;;;;;;;4.90;1.00;;;13.50;99.90;;;;;;6072400;23;20854;-64
2021/05/05 12:14:52;;;;;;;4.93;1.27;;;13.00;99.90;;;;;;6071828;23;20919;-66
2021/05/05 12:17:26;;;;;;;1.30;0.87;;;12.90;99.90;;;;;;6071742;23;20716;-66
2021/05/05 12:20:01;;;;;;;1.83;1.13;;;12.80;99.90;;;;;;6072182;23;20463;-67
2021/05/05 12:22:28;;;;;;;7.80;1.37;;;13.30;99.90;;;;;;6071751;23;20851;-66
2021/05/05 12:25:23;;;;;;;7.97;1.00;;;14.30;99.90;;;;;;6072317;23;20535;-67
2021/05/05 12:28:04;;;;;;;2.63;1.10;;;15.10;98.20;;;;;;6022456;23;20493;-67
2021/05/05 12:30:44;;;;;;;9.03;1.53;;;15.50;96.00;;;;;;6071761;23;20866;-67
2021/05/05 12:33:11;;;;;;;2.27;1.30;;;15.70;94.40;;;;;;6072548;23;20411;-68
2021/05/05 12:35:38;;;;;;;4.13;1.10;;;16.00;94.30;;;;;;6072965;23;20449;-67
2021/05/05 12:38:07;;;;;;;5.53;0.90;;;16.00;93.70;;;;;;6072223;23;20435;-68
2021/05/05 12:40:37;;;;;;;7.40;1.37;;;16.00;92.90;;;;;;6071745;23;20420;-66
2021/05/05 12:43:21;;;;;;;4.20;1.37;;;15.90;93.50;;;;;;6071306;23;20462;-67
2021/05/05 12:45:51;;;;;;;4.77;1.50;;;15.80;93.20;;;;;;6071766;23;20408;-67
2021/05/05 12:48:34;;;;;;;4.10;1.10;;;15.40;93.40;;;;;;6072260;23;20420;-67
2021/05/05 12:51:12;;;;;;;7.93;1.80;;;15.10;93.80;;;;;;6071784;23;20405;-67
2021/05/05 12:53:54;;;;;;;3.87;1.27;;;14.20;94.30;;;;;;6071921;23;20409;-67
2021/05/05 12:56:35;;;;;;;3.13;1.17;;;13.90;96.30;;;;;;6071379;23;20439;-66
2021/05/05 12:59:04;;;;;;;3.97;1.10;;;14.50;96.60;;;;;;6071497;23;20708;-66
2021/05/05 13:01:31;;;;;;;3.03;1.30;;;14.70;96.10;;;;;;6071652;23;20456;-67
2021/05/05 13:03:58;;;;;;;2.97;2.03;;;14.60;97.40;;;;;;6072534;23;20492;-66
2021/05/05 13:06:38;;;;;;;8.43;1.43;;;14.20;97.50;;;;;;6072313;23;20793;-68
2021/05/05 13:09:11;;;;;;;1.80;1.30;;;13.80;98.60;;;;;;6072270;23;20472;-67